Andalusia, Illinois
Current Conditions -  °F | °C
As of 11:52 PM on Wednesday 22 Oct 2014 (Local Time) from KMLI Reporting Station
Clear Clear  
Wind Chill: 43°   Ceiling: Unl
Heat Index: 43°   Visibility: 10mi
Dew Point: 35°   Wind: 3mph
Humidity: 74%   Direction: 150°SSE
Pressure: 30.2"   Gusts: NA
Location:  41.44°N, 90.72°W
Report Text: KMLI 230452Z AUTO 15003KT 10SM CLR 06/02 A3020 RMK AO2 SLP227 T00610017
Loading
Personal Weather Stations






























Interactive Weather Map
Tropical Storm Tracking
New forecast layout! Learn more

10-Day Weather Forecast

Advertisements
Track Severe Weather on mobile